Accueil
METAR-TAF:

METAR-TAF

Aéroports :

Wattisham, Angleterre

latitude: 52-07N, longitude: 000-58E, altitude: 87 m

Observation

Le bulletin a été fait il y a 25 minutes, à 11:50 UTC
Vent 6 kt de ouest/sud-ouest
Température 5°C
Humidité 81%
Pression 1017 hPa
Visibilité 10 km ou plus
pas de nuages en-dessous de 1500 mètres et pas de cumulonimbus.

METAR: EGUW 191150Z 25006KT CAVOK 05/02 Q1017 NOSIG RMK BLU BLU

Heure: 12:15 (12:15 UTC)

Prévision

Le bulletin a été fait il y a 1 heure et 17 minutes, à 10:58 UTC
Prévision valable du 19 à 12 UTC au 19 à 21 UTC
Vent 3 kt de ouest/sud-ouest
Visibilité 10 km ou plus
Quelques nuages à une hauteur de 1500 ft
Probabilité 40%
du 19 à 17 UTC au 19 à 21 UTC
Visibilité: 6000 m
brume

TAF: EGUW 191058Z 1912/1921 25003KT 9999 FEW015 PROB40 1917/1921 6000 BR

Observations et prévisions météorologiques de plus de 4000 aéroports (messages METAR et TAF).

Les stations disponibles sont représentées par des disques jaunes et rouges sur la carte.

Passer la souris dessus pour voir le nom de la station.

Cliquer dessus pour voir les observations et prévisions météorologiques.

Pour changer de carte: cliquez sur les boutons verts avec une croix noire pour zoomer, sur le bouton vert avec un tiret pour effectuer un zoom arrière, ou sur les flèches vertes pour les cartes adjacentes.


METAR-TAF: